Norbank — PGIS — position and weather

sailwx.info

Track history (hours):
 
Tides and Currents Weather Stations Pressure Air Temp Water Temp Dewpoint Dewpoint Depression Visibility Wind Speed Wind Dir Waves Ship Positions

Norbank

Operator: P & O Ferries

Last reported at 2016-Dec-10 16:33 UTC. Time now 2016-Dec-10 16:47 UTC.
Position N 53°29' W 003°04'.

Length 167 m; draft 5.7 m.

Type: Ship (hazmat cat A). MMSI: 246213000.

Date/timePositionNaut miles runAvg speedWind from/ knotsBaromVisibWave heightAir tempDewpointWater temp
2016-Dec-10 16:33N 53°29' W 003°04'1716.8
2016-Dec-10 15:33N 53°31' W 003°32'1515.4
2016-Dec-10 14:34N 53°33' W 003°58'11 0.8
2016-Dec-09 23:33N 53°34' W 003°39'1918.5
2016-Dec-09 22:33N 53°32' W 003°08'7 6.6
2016-Dec-09 21:32N 53°26' W 003°01'1 1.0
2016-Dec-09 20:32N 53°27' W 003°01'0 0.0
2016-Dec-09 19:28N 53°27' W 003°01'0 0.0
2016-Dec-09 18:31N 53°27' W 003°01'0 0.3
2016-Dec-09 17:33N 53°27' W 003°01'1 1.0
2016-Dec-09 16:33N 53°26' W 003°01'8 7.5
2016-Dec-09 15:33N 53°32' W 003°09'1514.8
2016-Dec-09 14:33N 53°31' W 003°34'2019.8
2016-Dec-09 13:33N 53°33' W 004°07'16 1.1
2016-Dec-08 23:11N 53°34' W 003°41'1319.6
2016-Dec-08 22:33N 53°32' W 003°20'1212.3
2016-Dec-08 21:33N 53°27' W 003°01'0 0.4
2016-Dec-08 20:31N 53°27' W 003°01'0 0.0
2016-Dec-08 19:33N 53°27' W 003°01'0 0.0
2016-Dec-08 18:33N 53°27' W 003°01'0 0.0
2016-Dec-08 17:30N 53°27' W 003°01'0 0.2
2016-Dec-08 16:33N 53°27' W 003°01'7 6.8
2016-Dec-08 15:33N 53°32' W 003°10'1817.8
2016-Dec-08 14:33N 53°31' W 003°40'1818.1
2016-Dec-08 13:33N 53°34' W 004°10'26 2.3
2016-Dec-08 02:16N 53°34' W 004°53'4717.3
2016-Dec-07 23:33N 53°34' W 003°34'1717.3
2016-Dec-07 22:33N 53°30' W 003°06'4 3.8
2016-Dec-07 21:33N 53°27' W 003°01'0 0.0
2016-Dec-07 20:29N 53°27' W 003°01'0 0.0
2016-Dec-07 19:32N 53°27' W 003°01'0 0.0
2016-Dec-07 18:31N 53°27' W 003°01'0 0.0
2016-Dec-07 17:28N 53°27' W 003°01'0 0.5
2016-Dec-07 16:32N 53°27' W 003°01'1212.4
2016-Dec-07 15:33N 53°31' W 003°20'2121.3
2016-Dec-07 14:33N 53°32' W 003°56'10 0.7
2016-Dec-06 23:32N 53°33' W 003°38'1817.8
2016-Dec-06 22:33N 53°32' W 003°09'7 6.7
2016-Dec-06 21:33N 53°27' W 003°01'0 0.4
2016-Dec-06 20:31N 53°27' W 003°01'0 0.0
2016-Dec-06 18:33N 53°27' W 003°01'0 0.0
2016-Dec-06 17:30N 53°27' W 003°01'0 0.2
2016-Dec-06 16:33N 53°27' W 003°01'7 7.1
2016-Dec-06 15:33N 53°32' W 003°11'1918.7
2016-Dec-06 14:33N 53°31' W 003°42'4 0.3
2016-Dec-05 23:33N 53°34' W 003°36'1717.2
2016-Dec-05 22:33N 53°31' W 003°07'6 5.8
2016-Dec-05 21:33N 53°27' W 003°01'0 0.4
2016-Dec-05 20:31N 53°27' W 003°01'0 0.0
2016-Dec-05 19:33N 53°27' W 003°01'0 0.0
2016-Dec-05 18:30N 53°27' W 003°01'0 0.0
2016-Dec-05 17:29N 53°27' W 003°01'0 0.0
2016-Dec-05 16:32N 53°27' W 003°01'0 0.0
2016-Dec-05 15:31N 53°27' W 003°01'0 0.0
2016-Dec-05 14:31N 53°27' W 003°01'0 0.0
2016-Dec-05 13:31N 53°27' W 003°01'0 0.0
2016-Dec-05 12:33N 53°27' W 003°01'0 0.0
2016-Dec-05 11:30N 53°27' W 003°01'0 0.0
2016-Dec-05 10:32N 53°27' W 003°01'0 0.0
2016-Dec-05 09:32N 53°27' W 003°01'0 0.0
2016-Dec-05 08:28N 53°27' W 003°01'0 0.0
2016-Dec-05 07:31N 53°27' W 003°01'0 0.0
2016-Dec-05 06:28N 53°27' W 003°01'0 0.5
2016-Dec-05 05:29N 53°27' W 003°01'6 6.0
2016-Dec-05 04:33N 53°31' W 003°07'1514.7
2016-Dec-05 03:33N 53°32' W 003°32'1313.5
2016-Dec-05 02:33N 53°32' W 003°55'4 0.1
2016-Dec-04 00:14N 53°34' W 003°50'1116.7
2016-Dec-03 23:33N 53°33' W 003°31'1515.3
2016-Dec-03 22:33N 53°30' W 003°06'4 4.0
2016-Dec-03 21:33N 53°27' W 003°01'0 0.4
2016-Dec-03 20:30N 53°27' W 003°01'0 0.0
2016-Dec-03 19:33N 53°27' W 003°01'0 0.0
2016-Dec-03 18:33N 53°27' W 003°01'0 0.0
2016-Dec-03 17:32N 53°27' W 003°01'0 0.4
2016-Dec-03 16:31N 53°27' W 003°01'8 7.8
2016-Dec-03 15:33N 53°32' W 003°11'1717.4
2016-Dec-03 14:33N 53°30' W 003°41'1716.0
2016-Dec-03 13:28N 53°33' W 004°09'15 1.0
2016-Dec-02 23:14N 53°34' W 003°45'1115.9
2016-Dec-02 22:33N 53°33' W 003°27'1514.9
2016-Dec-02 21:33N 53°28' W 003°03'1 1.2
2016-Dec-02 20:25N 53°27' W 003°01'0 0.0
2016-Dec-02 19:31N 53°27' W 003°01'0 0.0
2016-Dec-02 18:28N 53°27' W 003°01'0 0.0
2016-Dec-02 17:33N 53°27' W 003°01'0 0.2
2016-Dec-02 16:33N 53°27' W 003°01'4 3.7
2016-Dec-02 15:33N 53°30' W 003°06'1616.4
2016-Dec-02 14:33N 53°31' W 003°33'1717.5
2016-Dec-02 13:33N 53°32' W 004°03'78 9.3
2016-Dec-02 05:07N 53°21' W 006°13'8916.1
2016-Dec-01 23:33N 53°34' W 003°45'1616.0
2016-Dec-01 22:34N 53°32' W 003°18'1111.2
2016-Dec-01 21:33N 53°27' W 003°01'0 0.4
2016-Dec-01 20:29N 53°27' W 003°01'0 0.0
2016-Dec-01 19:33N 53°27' W 003°01'0 0.0
2016-Dec-01 18:30N 53°27' W 003°01'0 0.0
2016-Dec-01 17:32N 53°27' W 003°01'0 0.4
2016-Dec-01 16:33N 53°27' W 003°01'6 6.0
2016-Dec-01 15:33N 53°31' W 003°08'1818.4
2016-Dec-01 14:33N 53°31' W 003°39'31 2.3
2016-Dec-01 01:10N 53°36' W 004°31'1917.8
2016-Dec-01 00:06N 53°34' W 003°59'916.7
2016-Nov-30 23:33N 53°33' W 003°44'1616.1
2016-Nov-30 22:33N 53°32' W 003°17'1010.4
2016-Nov-30 21:33N 53°27' W 003°01'0 0.4
2016-Nov-30 20:33N 53°27' W 003°01'0 0.0
2016-Nov-30 19:31N 53°27' W 003°01'0 0.0
2016-Nov-30 18:28N 53°27' W 003°01'0 0.0
2016-Nov-30 17:33N 53°27' W 003°01'  
Track history (hours):
 
Tides and Currents Weather Stations Pressure Air Temp Water Temp Dewpoint Dewpoint Depression Visibility Wind Speed Wind Dir Waves Ship Positions

Norbank

Operator: P & O Ferries

Last reported at 2016-Dec-10 16:33 UTC. Time now 2016-Dec-10 16:47 UTC.
Position N 53°29' W 003°04'.

Length 167 m; draft 5.7 m.

Type: Ship (hazmat cat A). MMSI: 246213000.

Date/timePositionNaut miles runAvg speedWind from/ knotsBaromVisibWave heightAir tempDewpointWater temp
2016-Dec-10 16:33N 53°29' W 003°04'1716.8
2016-Dec-10 15:33N 53°31' W 003°32'1515.4
2016-Dec-10 14:34N 53°33' W 003°58'11 0.8
2016-Dec-09 23:33N 53°34' W 003°39'1918.5
2016-Dec-09 22:33N 53°32' W 003°08'7 6.6
2016-Dec-09 21:32N 53°26' W 003°01'1 1.0
2016-Dec-09 20:32N 53°27' W 003°01'0 0.0
2016-Dec-09 19:28N 53°27' W 003°01'0 0.0
2016-Dec-09 18:31N 53°27' W 003°01'0 0.3
2016-Dec-09 17:33N 53°27' W 003°01'1 1.0
2016-Dec-09 16:33N 53°26' W 003°01'8 7.5
2016-Dec-09 15:33N 53°32' W 003°09'1514.8
2016-Dec-09 14:33N 53°31' W 003°34'2019.8
2016-Dec-09 13:33N 53°33' W 004°07'16 1.1
2016-Dec-08 23:11N 53°34' W 003°41'1319.6
2016-Dec-08 22:33N 53°32' W 003°20'1212.3
2016-Dec-08 21:33N 53°27' W 003°01'0 0.4
2016-Dec-08 20:31N 53°27' W 003°01'0 0.0
2016-Dec-08 19:33N 53°27' W 003°01'0 0.0
2016-Dec-08 18:33N 53°27' W 003°01'0 0.0
2016-Dec-08 17:30N 53°27' W 003°01'0 0.2
2016-Dec-08 16:33N 53°27' W 003°01'7 6.8
2016-Dec-08 15:33N 53°32' W 003°10'1817.8
2016-Dec-08 14:33N 53°31' W 003°40'1818.1
2016-Dec-08 13:33N 53°34' W 004°10'26 2.3
2016-Dec-08 02:16N 53°34' W 004°53'4717.3
2016-Dec-07 23:33N 53°34' W 003°34'1717.3
2016-Dec-07 22:33N 53°30' W 003°06'4 3.8
2016-Dec-07 21:33N 53°27' W 003°01'0 0.0
2016-Dec-07 20:29N 53°27' W 003°01'0 0.0
2016-Dec-07 19:32N 53°27' W 003°01'0 0.0
2016-Dec-07 18:31N 53°27' W 003°01'0 0.0
2016-Dec-07 17:28N 53°27' W 003°01'0 0.5
2016-Dec-07 16:32N 53°27' W 003°01'1212.4
2016-Dec-07 15:33N 53°31' W 003°20'2121.3
2016-Dec-07 14:33N 53°32' W 003°56'10 0.7
2016-Dec-06 23:32N 53°33' W 003°38'1817.8
2016-Dec-06 22:33N 53°32' W 003°09'7 6.7
2016-Dec-06 21:33N 53°27' W 003°01'0 0.4
2016-Dec-06 20:31N 53°27' W 003°01'0 0.0
2016-Dec-06 18:33N 53°27' W 003°01'0 0.0
2016-Dec-06 17:30N 53°27' W 003°01'0 0.2
2016-Dec-06 16:33N 53°27' W 003°01'7 7.1
2016-Dec-06 15:33N 53°32' W 003°11'1918.7
2016-Dec-06 14:33N 53°31' W 003°42'4 0.3
2016-Dec-05 23:33N 53°34' W 003°36'1717.2
2016-Dec-05 22:33N 53°31' W 003°07'6 5.8
2016-Dec-05 21:33N 53°27' W 003°01'0 0.4
2016-Dec-05 20:31N 53°27' W 003°01'0 0.0
2016-Dec-05 19:33N 53°27' W 003°01'0 0.0
2016-Dec-05 18:30N 53°27' W 003°01'0 0.0
2016-Dec-05 17:29N 53°27' W 003°01'0 0.0
2016-Dec-05 16:32N 53°27' W 003°01'0 0.0
2016-Dec-05 15:31N 53°27' W 003°01'0 0.0
2016-Dec-05 14:31N 53°27' W 003°01'0 0.0
2016-Dec-05 13:31N 53°27' W 003°01'0 0.0
2016-Dec-05 12:33N 53°27' W 003°01'0 0.0
2016-Dec-05 11:30N 53°27' W 003°01'0 0.0
2016-Dec-05 10:32N 53°27' W 003°01'0 0.0
2016-Dec-05 09:32N 53°27' W 003°01'0 0.0
2016-Dec-05 08:28N 53°27' W 003°01'0 0.0
2016-Dec-05 07:31N 53°27' W 003°01'0 0.0
2016-Dec-05 06:28N 53°27' W 003°01'0 0.5
2016-Dec-05 05:29N 53°27' W 003°01'6 6.0
2016-Dec-05 04:33N 53°31' W 003°07'1514.7
2016-Dec-05 03:33N 53°32' W 003°32'1313.5
2016-Dec-05 02:33N 53°32' W 003°55'4 0.1
2016-Dec-04 00:14N 53°34' W 003°50'1116.7
2016-Dec-03 23:33N 53°33' W 003°31'1515.3
2016-Dec-03 22:33N 53°30' W 003°06'4 4.0
2016-Dec-03 21:33N 53°27' W 003°01'0 0.4
2016-Dec-03 20:30N 53°27' W 003°01'0 0.0
2016-Dec-03 19:33N 53°27' W 003°01'0 0.0
2016-Dec-03 18:33N 53°27' W 003°01'0 0.0
2016-Dec-03 17:32N 53°27' W 003°01'0 0.4
2016-Dec-03 16:31N 53°27' W 003°01'8 7.8
2016-Dec-03 15:33N 53°32' W 003°11'1717.4
2016-Dec-03 14:33N 53°30' W 003°41'1716.0
2016-Dec-03 13:28N 53°33' W 004°09'15 1.0
2016-Dec-02 23:14N 53°34' W 003°45'1115.9
2016-Dec-02 22:33N 53°33' W 003°27'1514.9
2016-Dec-02 21:33N 53°28' W 003°03'1 1.2
2016-Dec-02 20:25N 53°27' W 003°01'0 0.0
2016-Dec-02 19:31N 53°27' W 003°01'0 0.0
2016-Dec-02 18:28N 53°27' W 003°01'0 0.0
2016-Dec-02 17:33N 53°27' W 003°01'0 0.2
2016-Dec-02 16:33N 53°27' W 003°01'4 3.7
2016-Dec-02 15:33N 53°30' W 003°06'1616.4
2016-Dec-02 14:33N 53°31' W 003°33'1717.5
2016-Dec-02 13:33N 53°32' W 004°03'78 9.3
2016-Dec-02 05:07N 53°21' W 006°13'8916.1
2016-Dec-01 23:33N 53°34' W 003°45'1616.0
2016-Dec-01 22:34N 53°32' W 003°18'1111.2
2016-Dec-01 21:33N 53°27' W 003°01'0 0.4
2016-Dec-01 20:29N 53°27' W 003°01'0 0.0
2016-Dec-01 19:33N 53°27' W 003°01'0 0.0
2016-Dec-01 18:30N 53°27' W 003°01'0 0.0
2016-Dec-01 17:32N 53°27' W 003°01'0 0.4
2016-Dec-01 16:33N 53°27' W 003°01'6 6.0
2016-Dec-01 15:33N 53°31' W 003°08'1818.4
2016-Dec-01 14:33N 53°31' W 003°39'31 2.3
2016-Dec-01 01:10N 53°36' W 004°31'1917.8
2016-Dec-01 00:06N 53°34' W 003°59'916.7
2016-Nov-30 23:33N 53°33' W 003°44'1616.1
2016-Nov-30 22:33N 53°32' W 003°17'1010.4
2016-Nov-30 21:33N 53°27' W 003°01'0 0.4
2016-Nov-30 20:33N 53°27' W 003°01'0 0.0
2016-Nov-30 19:31N 53°27' W 003°01'0 0.0
2016-Nov-30 18:28N 53°27' W 003°01'0 0.0
2016-Nov-30 17:33N 53°27' W 003°01'  

Dump ship's entire track history